createdAt,value
2022-09-14T00:01:14.273Z,65.22
2022-09-14T00:03:39.782Z,65.05
2022-09-14T00:06:12.112Z,65.28
2022-09-14T00:08:39.561Z,65.39
2022-09-14T00:11:12.275Z,65.52
2022-09-14T00:13:41.039Z,66.05
2022-09-14T00:16:12.854Z,66.23
2022-09-14T00:18:39.871Z,65.85
2022-09-14T00:21:08.528Z,66.21
2022-09-14T00:23:36.520Z,66.20
2022-09-14T00:26:11.273Z,66.29
2022-09-14T00:28:43.207Z,66.14
2022-09-14T00:31:10.760Z,66.00
2022-09-14T00:33:38.384Z,66.35
2022-09-14T00:36:06.968Z,66.34
2022-09-14T00:38:33.807Z,65.88
2022-09-14T00:41:01.410Z,65.96
2022-09-14T00:43:28.264Z,65.85
2022-09-14T00:45:55.123Z,66.03
2022-09-14T00:48:24.646Z,65.67
2022-09-14T00:50:52.091Z,65.63
2022-09-14T00:53:18.807Z,65.78
2022-09-14T00:55:45.794Z,65.72
2022-09-14T00:58:12.442Z,65.94
2022-09-14T01:00:39.180Z,65.92
2022-09-14T01:03:05.919Z,66.06
2022-09-14T01:06:22.026Z,65.89
2022-09-14T01:09:27.193Z,66.09
2022-09-14T01:12:25.783Z,66.33
2022-09-14T01:15:17.824Z,66.09
2022-09-14T01:18:07.926Z,66.33
2022-09-14T01:20:45.868Z,66.04
2022-09-14T01:23:39.651Z,66.21
2022-09-14T01:26:38.331Z,66.21
2022-09-14T01:29:18.139Z,66.12
2022-09-14T01:31:52.756Z,66.02
2022-09-14T01:34:48.681Z,65.75
2022-09-14T01:37:28.913Z,66.28
2022-09-14T01:40:01.545Z,65.81
2022-09-14T01:42:29.324Z,66.08
2022-09-14T01:45:00.255Z,66.13
2022-09-14T01:47:39.298Z,66.10
2022-09-14T01:50:17.594Z,66.12
2022-09-14T01:52:55.005Z,65.97
2022-09-14T01:55:32.142Z,66.07
2022-09-14T01:58:01.501Z,65.65
2022-09-14T02:00:28.441Z,65.55
2022-09-14T02:03:10.994Z,65.72
2022-09-14T02:05:42.796Z,65.95
2022-09-14T02:08:09.582Z,65.91
2022-09-14T02:10:36.257Z,65.80
2022-09-14T02:13:03.088Z,65.66
2022-09-14T02:15:29.783Z,65.54
2022-09-14T02:17:56.558Z,65.79
2022-09-14T02:20:28.958Z,65.62
2022-09-14T02:22:55.851Z,65.55
2022-09-14T02:25:22.841Z,65.78
2022-09-14T02:27:49.854Z,66.05
2022-09-14T02:30:17.222Z,66.27
2022-09-14T02:33:02.329Z,65.86
2022-09-14T02:35:50.110Z,66.02
2022-09-14T02:38:46.836Z,65.86
2022-09-14T02:41:58.821Z,66.09
2022-09-14T02:44:28.491Z,65.98
2022-09-14T02:47:36.951Z,65.90
2022-09-14T02:50:30.255Z,65.65
2022-09-14T02:53:06.074Z,65.53
2022-09-14T02:55:36.602Z,65.62
2022-09-14T02:58:10.207Z,66.08
2022-09-14T03:00:40.360Z,65.74
2022-09-14T03:03:09.008Z,65.97
2022-09-14T03:05:36.399Z,66.31
2022-09-14T03:08:04.063Z,66.34
2022-09-14T03:10:31.791Z,66.14
2022-09-14T03:12:58.831Z,65.87
2022-09-14T03:15:26.160Z,66.04
2022-09-14T03:17:52.920Z,65.67
2022-09-14T03:20:27.921Z,65.93
2022-09-14T03:22:55.179Z,65.86
2022-09-14T03:25:25.124Z,65.41
2022-09-14T03:27:53.831Z,65.76
2022-09-14T03:30:20.778Z,65.59
2022-09-14T03:32:47.775Z,65.28
2022-09-14T03:35:20.116Z,65.79
2022-09-14T03:37:47.961Z,65.44
2022-09-14T03:40:21.367Z,65.28
2022-09-14T03:42:50.520Z,65.60
2022-09-14T03:45:18.348Z,65.17
2022-09-14T03:47:46.719Z,65.31
2022-09-14T03:50:14.571Z,65.58
2022-09-14T03:52:41.442Z,65.53
2022-09-14T03:55:09.486Z,65.43
2022-09-14T03:57:37.202Z,65.82
2022-09-14T04:00:05.695Z,65.81
2022-09-14T04:02:38.358Z,65.68
2022-09-14T04:05:05.655Z,66.25
2022-09-14T04:07:32.366Z,66.37
2022-09-14T04:09:59.083Z,66.37
2022-09-14T04:12:25.785Z,65.88
2022-09-14T04:14:52.422Z,65.98
2022-09-14T04:17:19.214Z,66.01
2022-09-14T04:19:45.886Z,66.24
2022-09-14T04:22:12.610Z,66.03
2022-09-14T04:24:39.265Z,66.03
2022-09-14T04:27:06.106Z,65.68
2022-09-14T04:29:33.195Z,66.11
2022-09-14T04:32:01.734Z,66.33
2022-09-14T04:34:28.386Z,66.28
2022-09-14T04:36:55.259Z,65.94
2022-09-14T04:39:22.392Z,66.14
2022-09-14T04:41:49.220Z,66.28
2022-09-14T04:44:16.042Z,65.95
2022-09-14T04:46:46.579Z,66.33
2022-09-14T04:49:15.591Z,66.48
2022-09-14T04:51:42.503Z,65.90
2022-09-14T04:54:10.002Z,66.36
2022-09-14T04:56:37.168Z,66.21
2022-09-14T04:59:05.730Z,66.42
2022-09-14T05:01:36.374Z,66.51
2022-09-14T05:04:04.409Z,66.12
2022-09-14T05:06:32.871Z,66.40
2022-09-14T05:09:00.480Z,66.35
2022-09-14T05:11:31.162Z,66.68
2022-09-14T05:13:59.078Z,66.49
2022-09-14T05:16:34.025Z,66.57
2022-09-14T05:19:03.147Z,66.09
2022-09-14T05:21:31.154Z,66.18
2022-09-14T05:24:03.839Z,66.30
2022-09-14T05:26:32.211Z,66.21
2022-09-14T05:29:04.661Z,66.47
2022-09-14T05:31:35.976Z,66.22
2022-09-14T05:34:14.937Z,66.24
2022-09-14T05:36:52.705Z,66.13
2022-09-14T05:39:23.427Z,66.07
2022-09-14T05:41:53.629Z,65.94
2022-09-14T05:44:28.940Z,66.34
2022-09-14T05:47:02.480Z,65.50
2022-09-14T05:49:33.541Z,66.04
2022-09-14T05:52:04.885Z,65.61
2022-09-14T05:54:36.968Z,66.06
2022-09-14T05:57:17.712Z,65.60
2022-09-14T05:59:48.639Z,65.49
2022-09-14T06:02:26.579Z,65.97
2022-09-14T06:04:57.896Z,65.93
2022-09-14T06:07:25.439Z,65.58
2022-09-14T06:09:52.093Z,65.56
2022-09-14T06:12:18.818Z,65.89
2022-09-14T06:14:45.458Z,66.01
2022-09-14T06:17:12.191Z,65.66
2022-09-14T06:19:38.835Z,65.47
2022-09-14T06:22:05.697Z,65.89
2022-09-14T06:24:41.430Z,65.78
2022-09-14T06:27:09.256Z,65.48
2022-09-14T06:29:37.234Z,65.43
2022-09-14T06:32:04.637Z,65.06
2022-09-14T06:34:31.450Z,64.87
2022-09-14T06:36:58.222Z,65.31
2022-09-14T06:39:24.967Z,65.15
2022-09-14T06:41:52.070Z,64.82
2022-09-14T06:44:19.538Z,65.01
2022-09-14T06:46:47.694Z,64.91
2022-09-14T06:49:20.721Z,64.51
2022-09-14T06:51:47.825Z,64.68
2022-09-14T06:54:15.970Z,64.50
2022-09-14T06:56:43.980Z,64.60
2022-09-14T06:59:12.630Z,64.77
2022-09-14T07:01:40.104Z,64.25
2022-09-14T07:04:07.054Z,64.38
2022-09-14T07:06:43.060Z,64.04
2022-09-14T07:09:10.699Z,64.56
2022-09-14T07:11:38.350Z,64.26
2022-09-14T07:14:05.706Z,64.31
2022-09-14T07:16:33.657Z,63.96
2022-09-14T07:19:02.983Z,63.56
2022-09-14T07:21:31.207Z,63.18
2022-09-14T07:23:58.372Z,63.73
2022-09-14T07:26:30.818Z,63.54
2022-09-14T07:29:00.765Z,63.63
2022-09-14T07:31:33.572Z,63.02
2022-09-14T07:34:04.663Z,63.00
2022-09-14T07:36:35.058Z,62.92
2022-09-14T07:39:04.614Z,62.76
2022-09-14T07:41:33.116Z,62.16
2022-09-14T07:44:01.380Z,61.97
2022-09-14T07:46:29.427Z,62.07
2022-09-14T07:49:01.278Z,62.22
2022-09-14T07:51:29.120Z,61.93
2022-09-14T07:53:55.994Z,61.63
2022-09-14T07:56:22.798Z,61.39
2022-09-14T07:58:55.459Z,61.55
2022-09-14T08:01:26.076Z,61.30
2022-09-14T08:03:52.852Z,61.15
2022-09-14T08:06:22.578Z,61.35
2022-09-14T08:08:51.891Z,61.14
2022-09-14T08:11:21.386Z,60.97
2022-09-14T08:14:15.740Z,61.31
2022-09-14T08:16:42.500Z,61.50
2022-09-14T08:19:16.778Z,61.36
2022-09-14T08:21:46.896Z,60.81
2022-09-14T08:24:19.626Z,61.13
2022-09-14T08:26:47.197Z,60.82
2022-09-14T08:29:15.854Z,60.73
2022-09-14T08:31:45.509Z,60.23
2022-09-14T08:34:13.352Z,60.31
2022-09-14T08:36:41.300Z,59.75
2022-09-14T08:39:09.485Z,59.55
2022-09-14T08:41:56.370Z,59.79
2022-09-14T08:44:27.383Z,59.07
2022-09-14T08:47:05.980Z,59.21
2022-09-14T08:49:46.053Z,59.59
2022-09-14T08:52:22.679Z,59.15
2022-09-14T08:54:54.179Z,58.71
2022-09-14T08:57:43.086Z,59.19
2022-09-14T09:00:14.334Z,58.60
2022-09-14T09:03:09.191Z,58.38
2022-09-14T09:05:43.830Z,57.83
2022-09-14T09:08:37.004Z,57.75
2022-09-14T09:11:05.743Z,57.48
2022-09-14T09:13:36.546Z,57.18
2022-09-14T09:16:05.371Z,56.54
2022-09-14T09:18:50.572Z,56.60
2022-09-14T09:21:23.600Z,56.04
2022-09-14T09:23:50.322Z,56.44
2022-09-14T09:26:28.243Z,56.26
2022-09-14T09:28:57.581Z,56.22
2022-09-14T09:31:36.385Z,56.12
2022-09-14T09:34:30.085Z,55.80
2022-09-14T09:37:23.271Z,55.41
2022-09-14T09:39:51.174Z,55.78
2022-09-14T09:42:23.478Z,55.16
2022-09-14T09:45:04.371Z,55.33
2022-09-14T09:47:34.950Z,55.28
2022-09-14T09:50:17.367Z,55.52
2022-09-14T09:53:04.589Z,56.18
2022-09-14T09:55:37.755Z,55.89
2022-09-14T09:58:25.944Z,56.58
2022-09-14T10:00:58.462Z,56.83
2022-09-14T10:03:52.863Z,56.76
2022-09-14T10:06:19.599Z,56.44
2022-09-14T10:08:49.084Z,56.59
2022-09-14T10:11:37.811Z,56.82
2022-09-14T10:14:05.858Z,57.33
2022-09-14T10:16:39.090Z,57.85
2022-09-14T10:19:14.461Z,57.79
2022-09-14T10:22:24.297Z,57.91
2022-09-14T10:24:55.998Z,58.28
2022-09-14T10:27:42.574Z,58.87
2022-09-14T10:30:34.602Z,58.95
2022-09-14T10:33:06.658Z,58.71
2022-09-14T10:35:42.983Z,59.06
2022-09-14T10:38:30.980Z,59.56
2022-09-14T10:41:23.593Z,60.44
2022-09-14T10:43:58.134Z,60.29
2022-09-14T10:46:30.753Z,60.92
2022-09-14T10:49:10.241Z,60.91
2022-09-14T10:52:03.329Z,61.56
2022-09-14T10:54:45.117Z,61.83
2022-09-14T10:57:20.897Z,61.66
2022-09-14T10:59:55.919Z,61.71
2022-09-14T11:02:37.204Z,62.35
2022-09-14T11:05:23.981Z,62.31
2022-09-14T11:08:29.903Z,62.33
2022-09-14T11:11:09.365Z,62.14
2022-09-14T11:13:44.070Z,62.25
2022-09-14T11:16:29.870Z,62.27
2022-09-14T11:19:30.667Z,62.13
2022-09-14T11:22:26.174Z,62.58
2022-09-14T11:25:04.498Z,62.35
2022-09-14T11:27:38.854Z,62.07
2022-09-14T11:30:06.149Z,61.94
2022-09-14T11:32:55.987Z,61.55
2022-09-14T11:35:26.101Z,61.44
2022-09-14T11:38:00.850Z,61.88
2022-09-14T11:40:37.182Z,61.99
2022-09-14T11:43:09.896Z,62.17
2022-09-14T11:45:42.881Z,61.64
2022-09-14T11:51:29.670Z,61.85
2022-09-14T11:53:56.440Z,61.41
2022-09-14T11:56:26.794Z,61.35
2022-09-14T11:58:55.949Z,61.28
2022-09-14T12:01:37.437Z,60.90
2022-09-14T12:04:07.504Z,61.22
2022-09-14T12:06:34.165Z,60.83
2022-09-14T12:09:12.829Z,60.99
2022-09-14T12:11:40.891Z,61.22
2022-09-14T12:14:36.701Z,61.37
2022-09-14T12:20:33.223Z,61.39
2022-09-14T12:23:21.098Z,61.43
2022-09-14T12:26:19.825Z,61.28
2022-09-14T12:28:48.836Z,61.39
2022-09-14T12:31:35.172Z,61.44
2022-09-14T12:34:18.137Z,60.96
2022-09-14T12:36:44.796Z,61.15
2022-09-14T12:39:27.509Z,61.47
2022-09-14T12:41:54.174Z,61.34
2022-09-14T12:44:36.003Z,61.76
2022-09-14T12:47:24.408Z,61.42
2022-09-14T12:49:53.101Z,61.64
2022-09-14T12:52:34.879Z,61.83
2022-09-14T12:55:27.927Z,61.48
2022-09-14T12:58:21.817Z,61.82
2022-09-14T13:01:26.948Z,61.40
2022-09-14T13:03:55.395Z,61.01
2022-09-14T13:06:24.762Z,61.10
2022-09-14T13:08:57.676Z,61.25
2022-09-14T13:11:28.734Z,61.33
2022-09-14T13:13:56.602Z,61.46
2022-09-14T13:16:39.764Z,61.15
2022-09-14T13:19:27.746Z,61.01
2022-09-14T13:21:56.781Z,61.22
2022-09-14T13:24:26.190Z,60.53
2022-09-14T13:26:55.390Z,60.82
2022-09-14T13:29:22.174Z,60.78
2022-09-14T13:31:49.442Z,60.57
2022-09-14T13:34:37.212Z,61.00
2022-09-14T13:37:04.540Z,60.48
2022-09-14T13:39:37.522Z,60.56
2022-09-14T13:42:05.374Z,60.09
2022-09-14T13:44:50.729Z,60.30
2022-09-14T13:47:20.829Z,59.61
2022-09-14T13:49:48.536Z,59.31
2022-09-14T13:52:34.301Z,59.51
2022-09-14T13:55:20.560Z,59.68
2022-09-14T13:58:11.632Z,59.73
2022-09-14T14:01:00.451Z,59.85
2022-09-14T14:03:41.535Z,59.88
2022-09-14T14:06:21.467Z,59.94
2022-09-14T14:09:08.312Z,59.59
2022-09-14T14:11:35.331Z,59.74
2022-09-14T14:14:17.245Z,60.00
2022-09-14T14:17:21.563Z,60.10
2022-09-14T14:19:50.125Z,60.21
2022-09-14T14:22:26.773Z,60.05
2022-09-14T14:25:12.761Z,60.39
2022-09-14T14:27:43.803Z,60.43
2022-09-14T14:30:17.823Z,60.00
2022-09-14T14:32:50.535Z,60.27
2022-09-14T14:35:20.161Z,59.83
2022-09-14T14:37:47.881Z,59.25
2022-09-14T14:40:15.577Z,58.62
2022-09-14T14:42:42.844Z,58.37
2022-09-14T14:45:20.721Z,57.71
2022-09-14T14:47:48.293Z,57.03
2022-09-14T14:50:16.704Z,57.42
2022-09-14T14:52:43.443Z,57.23
2022-09-14T14:55:10.565Z,56.97
2022-09-14T14:57:40.060Z,56.83
2022-09-14T15:00:13.497Z,56.84
2022-09-14T15:02:40.272Z,56.17
2022-09-14T15:05:07.431Z,55.61
2022-09-14T15:07:37.640Z,56.16
2022-09-14T15:10:06.003Z,55.82
2022-09-14T15:12:33.214Z,56.69
2022-09-14T15:15:00.160Z,56.48
2022-09-14T15:17:27.067Z,56.79
2022-09-14T15:19:53.814Z,56.67
2022-09-14T15:22:20.830Z,56.20
2022-09-14T15:24:47.627Z,55.81
2022-09-14T15:27:14.811Z,53.13
2022-09-14T15:29:41.552Z,45.50
2022-09-14T15:32:08.197Z,38.46
2022-09-14T15:34:34.948Z,33.58
2022-09-14T15:37:01.719Z,34.71
2022-09-14T15:39:31.253Z,39.09
2022-09-14T15:41:58.229Z,40.76
2022-09-14T15:44:25.013Z,42.22
2022-09-14T15:46:51.948Z,40.48
2022-09-14T15:49:21.235Z,36.46
2022-09-14T15:51:50.485Z,31.43
2022-09-14T15:54:18.205Z,29.21
2022-09-14T15:56:50.477Z,30.76
2022-09-14T15:59:18.259Z,33.46
2022-09-14T16:01:45.381Z,36.29
2022-09-14T16:04:12.523Z,32.80
2022-09-14T16:06:40.278Z,30.62
2022-09-14T16:09:08.751Z,28.18
2022-09-14T16:11:36.228Z,26.53
2022-09-14T16:14:05.552Z,25.24
2022-09-14T16:16:33.864Z,24.99
2022-09-14T16:19:08.694Z,24.16
2022-09-14T16:21:35.843Z,23.78
2022-09-14T16:24:06.038Z,23.42
2022-09-14T16:26:34.802Z,22.76
2022-09-14T16:29:01.859Z,22.50
2022-09-14T16:31:31.049Z,22.46
2022-09-14T16:33:59.966Z,22.70
2022-09-14T16:36:29.147Z,24.75
2022-09-14T16:38:57.890Z,28.75
2022-09-14T16:41:24.736Z,32.23
2022-09-14T16:43:55.026Z,34.59
2022-09-14T16:46:21.653Z,37.01
2022-09-14T16:48:50.229Z,38.90
2022-09-14T16:51:20.764Z,40.93
2022-09-14T16:53:48.381Z,42.76
2022-09-14T16:56:17.485Z,43.65
2022-09-14T16:58:45.582Z,44.96
2022-09-14T17:01:15.248Z,46.19
2022-09-14T17:03:42.854Z,47.13
2022-09-14T17:06:16.065Z,47.48
2022-09-14T17:08:44.076Z,48.31
2022-09-14T17:11:11.086Z,48.78
2022-09-14T17:13:37.710Z,48.96
2022-09-14T17:16:08.488Z,49.93
2022-09-14T17:18:36.250Z,50.28
2022-09-14T17:21:04.273Z,51.72
2022-09-14T17:23:30.980Z,52.50
2022-09-14T17:25:58.098Z,52.42
2022-09-14T17:28:27.261Z,53.09
2022-09-14T17:30:54.833Z,52.95
2022-09-14T17:33:21.503Z,52.92
2022-09-14T17:35:48.625Z,52.65
2022-09-14T17:38:15.657Z,53.28
2022-09-14T17:40:42.338Z,53.59
2022-09-14T17:43:09.049Z,53.43
2022-09-14T17:45:35.531Z,54.11
2022-09-14T17:48:02.469Z,54.39
2022-09-14T17:50:29.758Z,54.82
2022-09-14T17:52:56.807Z,55.21
2022-09-14T17:55:24.323Z,55.83
2022-09-14T17:57:51.001Z,56.63
2022-09-14T18:00:17.670Z,56.82
2022-09-14T18:02:44.314Z,57.27
2022-09-14T18:05:10.978Z,57.77
2022-09-14T18:07:37.798Z,58.11
2022-09-14T18:10:05.141Z,58.30
2022-09-14T18:12:36.437Z,58.55
2022-09-14T18:15:04.313Z,58.78
2022-09-14T18:17:31.391Z,58.66
2022-09-14T18:19:58.722Z,58.73
2022-09-14T18:22:25.978Z,58.92
2022-09-14T18:24:52.724Z,59.44
2022-09-14T18:27:19.855Z,59.66
2022-09-14T18:29:46.877Z,59.29
2022-09-14T18:32:13.642Z,59.29
2022-09-14T18:34:40.456Z,59.30
2022-09-14T18:37:07.133Z,59.13
2022-09-14T18:39:33.823Z,58.96
2022-09-14T18:42:00.653Z,58.80
2022-09-14T18:44:27.707Z,58.85
2022-09-14T18:46:54.420Z,58.87
2022-09-14T18:49:21.287Z,59.32
2022-09-14T18:51:47.933Z,58.76
2022-09-14T18:54:14.874Z,59.01
2022-09-14T18:56:41.767Z,59.06
2022-09-14T18:59:18.401Z,58.92
2022-09-14T19:01:45.885Z,59.00
2022-09-14T19:04:12.921Z,58.94
2022-09-14T19:06:41.598Z,58.84
2022-09-14T19:09:08.991Z,58.83
2022-09-14T19:11:36.067Z,59.27
2022-09-14T19:14:10.269Z,59.32
2022-09-14T19:16:39.091Z,59.01
2022-09-14T19:19:07.247Z,59.36
2022-09-14T19:21:34.024Z,59.07
2022-09-14T19:24:06.871Z,59.67
2022-09-14T19:26:43.988Z,59.54
2022-09-14T19:29:15.958Z,60.14
2022-09-14T19:31:42.950Z,59.62
2022-09-14T19:34:10.496Z,59.61
2022-09-14T19:36:37.195Z,59.73
2022-09-14T19:39:04.619Z,59.49
2022-09-14T19:41:33.127Z,59.46
2022-09-14T19:44:01.025Z,59.75
2022-09-14T19:46:28.567Z,60.31
2022-09-14T19:48:55.839Z,60.08
2022-09-14T19:51:25.905Z,60.36
2022-09-14T19:53:54.821Z,60.75
2022-09-14T19:56:25.540Z,60.67
2022-09-14T19:58:53.929Z,60.94
2022-09-14T20:01:22.496Z,60.88
2022-09-14T20:03:49.980Z,60.96
2022-09-14T20:06:26.090Z,61.13
2022-09-14T20:08:55.894Z,61.43
2022-09-14T20:11:25.946Z,61.76
2022-09-14T20:13:57.394Z,61.61
2022-09-14T20:16:29.226Z,61.82
2022-09-14T20:18:57.997Z,61.89
2022-09-14T20:21:26.062Z,62.31
2022-09-14T20:24:15.170Z,62.09
2022-09-14T20:26:43.465Z,61.88
2022-09-14T20:29:10.207Z,62.09
2022-09-14T20:31:37.302Z,62.18
2022-09-14T20:34:04.489Z,62.59
2022-09-14T20:36:31.459Z,62.02
2022-09-14T20:38:59.447Z,61.72
2022-09-14T20:41:29.541Z,61.86
2022-09-14T20:43:56.838Z,61.33
2022-09-14T20:46:30.991Z,61.41
2022-09-14T20:48:58.403Z,61.15
2022-09-14T20:51:25.262Z,61.06
2022-09-14T20:53:52.527Z,61.04
2022-09-14T20:56:25.652Z,60.99
2022-09-14T20:58:57.083Z,60.62
2022-09-14T21:01:27.867Z,60.55
2022-09-14T21:04:07.968Z,60.31
2022-09-14T21:06:37.596Z,60.75
2022-09-14T21:09:08.838Z,60.25
2022-09-14T21:11:36.683Z,60.90
2022-09-14T21:14:04.325Z,61.43
2022-09-14T21:16:37.702Z,61.13
2022-09-14T21:19:16.781Z,61.10
2022-09-14T21:21:44.058Z,61.35
2022-09-14T21:24:13.300Z,61.34
2022-09-14T21:26:44.087Z,61.54
2022-09-14T21:29:17.293Z,61.32
2022-09-14T21:31:44.727Z,61.21
2022-09-14T21:34:11.822Z,60.98
2022-09-14T21:36:41.626Z,61.17
2022-09-14T21:39:11.613Z,61.51
2022-09-14T21:41:40.149Z,61.44
2022-09-14T21:44:06.813Z,61.07
2022-09-14T21:46:33.733Z,61.15
2022-09-14T21:49:00.610Z,61.17
2022-09-14T21:51:29.678Z,61.12
2022-09-14T21:53:59.257Z,61.50
2022-09-14T21:56:33.818Z,61.64
2022-09-14T21:59:03.585Z,61.55
2022-09-14T22:01:30.692Z,61.55
2022-09-14T22:03:57.915Z,61.65
2022-09-14T22:06:27.440Z,61.81
2022-09-14T22:08:55.042Z,61.62
2022-09-14T22:11:26.381Z,61.55
2022-09-14T22:13:54.354Z,61.81
2022-09-14T22:16:22.519Z,61.64
2022-09-14T22:18:56.419Z,61.55
2022-09-14T22:21:24.691Z,61.86
2022-09-14T22:23:53.728Z,61.54
2022-09-14T22:26:21.085Z,62.02
2022-09-14T22:28:49.131Z,62.04
2022-09-14T22:31:17.866Z,61.90
2022-09-14T22:33:44.806Z,62.06
2022-09-14T22:36:11.995Z,62.01
2022-09-14T22:38:40.990Z,61.71
2022-09-14T22:41:15.227Z,61.65
2022-09-14T22:43:42.031Z,61.79
2022-09-14T22:46:09.058Z,61.69
2022-09-14T22:48:36.625Z,61.61
2022-09-14T22:51:05.049Z,61.88
2022-09-14T22:53:31.976Z,61.73
2022-09-14T22:55:58.723Z,61.91
2022-09-14T22:58:27.202Z,61.99
2022-09-14T23:00:54.022Z,62.30
2022-09-14T23:03:21.203Z,62.46
2022-09-14T23:05:53.061Z,62.50
2022-09-14T23:08:20.207Z,62.52
2022-09-14T23:10:48.040Z,62.62
2022-09-14T23:13:15.826Z,62.87
2022-09-14T23:15:42.894Z,62.82
2022-09-14T23:18:10.030Z,63.09
2022-09-14T23:20:41.381Z,63.10
2022-09-14T23:23:08.327Z,63.13
2022-09-14T23:25:36.082Z,63.46
2022-09-14T23:28:04.075Z,63.48
2022-09-14T23:30:31.410Z,63.73
2022-09-14T23:32:59.315Z,64.02
2022-09-14T23:35:27.026Z,64.30
2022-09-14T23:37:54.269Z,64.28
2022-09-14T23:40:21.337Z,64.52
2022-09-14T23:42:48.141Z,64.40
2022-09-14T23:45:15.306Z,64.18
2022-09-14T23:47:42.200Z,64.29
2022-09-14T23:50:09.305Z,63.89
2022-09-14T23:52:36.921Z,63.98
2022-09-14T23:55:04.361Z,63.76
2022-09-14T23:57:31.078Z,63.79
2022-09-14T23:59:58.589Z,63.72
